sensor_id;sensor_type;location;lat;lon;timestamp;P1;durP1;ratioP1;P2;durP2;ratioP2
28653;SDS011;24320;56.980;24.336;2023-09-08T00:01:00;16.52;;;6.38;;
28653;SDS011;24320;56.980;24.336;2023-09-08T00:03:27;11.75;;;5.50;;
28653;SDS011;24320;56.980;24.336;2023-09-08T00:05:54;10.50;;;5.38;;
28653;SDS011;24320;56.980;24.336;2023-09-08T00:08:21;14.27;;;5.75;;
28653;SDS011;24320;56.980;24.336;2023-09-08T00:10:50;15.57;;;6.30;;
28653;SDS011;24320;56.980;24.336;2023-09-08T00:13:17;13.35;;;5.78;;
28653;SDS011;24320;56.980;24.336;2023-09-08T00:15:44;12.70;;;5.18;;
28653;SDS011;24320;56.980;24.336;2023-09-08T00:18:12;10.48;;;4.35;;
28653;SDS011;24320;56.980;24.336;2023-09-08T00:20:39;14.15;;;6.20;;
28653;SDS011;24320;56.980;24.336;2023-09-08T00:23:08;15.55;;;5.55;;
28653;SDS011;24320;56.980;24.336;2023-09-08T00:25:35;11.30;;;5.43;;
28653;SDS011;24320;56.980;24.336;2023-09-08T00:28:02;9.63;;;4.50;;
28653;SDS011;24320;56.980;24.336;2023-09-08T00:30:30;8.40;;;4.40;;
28653;SDS011;24320;56.980;24.336;2023-09-08T00:32:57;7.82;;;3.40;;
28653;SDS011;24320;56.980;24.336;2023-09-08T00:35:24;7.13;;;2.97;;
28653;SDS011;24320;56.980;24.336;2023-09-08T00:37:51;7.82;;;2.38;;
28653;SDS011;24320;56.980;24.336;2023-09-08T00:40:19;3.83;;;2.30;;
28653;SDS011;24320;56.980;24.336;2023-09-08T00:42:46;3.47;;;2.10;;
28653;SDS011;24320;56.980;24.336;2023-09-08T00:45:13;2.75;;;1.80;;
28653;SDS011;24320;56.980;24.336;2023-09-08T00:47:40;1.92;;;1.70;;
28653;SDS011;24320;56.980;24.336;2023-09-08T00:50:07;9.32;;;2.10;;
28653;SDS011;24320;56.980;24.336;2023-09-08T00:52:35;2.78;;;1.90;;
28653;SDS011;24320;56.980;24.336;2023-09-08T00:55:02;3.70;;;1.67;;
28653;SDS011;24320;56.980;24.336;2023-09-08T00:57:29;2.95;;;1.92;;
28653;SDS011;24320;56.980;24.336;2023-09-08T00:59:57;4.43;;;2.00;;
28653;SDS011;24320;56.980;24.336;2023-09-08T01:02:25;2.50;;;1.70;;
28653;SDS011;24320;56.980;24.336;2023-09-08T01:04:52;4.40;;;1.75;;
28653;SDS011;24320;56.980;24.336;2023-09-08T01:07:19;4.22;;;2.00;;
28653;SDS011;24320;56.980;24.336;2023-09-08T01:09:47;2.33;;;1.80;;
28653;SDS011;24320;56.980;24.336;2023-09-08T01:12:15;4.95;;;1.88;;
28653;SDS011;24320;56.980;24.336;2023-09-08T01:14:42;2.97;;;1.80;;
28653;SDS011;24320;56.980;24.336;2023-09-08T01:17:09;8.50;;;2.13;;
28653;SDS011;24320;56.980;24.336;2023-09-08T01:19:36;3.97;;;2.10;;
28653;SDS011;24320;56.980;24.336;2023-09-08T01:24:59;6.38;;;1.95;;
28653;SDS011;24320;56.980;24.336;2023-09-08T01:27:34;3.70;;;2.00;;
28653;SDS011;24320;56.980;24.336;2023-09-08T01:30:04;3.27;;;1.83;;
28653;SDS011;24320;56.980;24.336;2023-09-08T01:32:32;2.58;;;1.90;;
28653;SDS011;24320;56.980;24.336;2023-09-08T01:35:01;4.07;;;1.70;;
28653;SDS011;24320;56.980;24.336;2023-09-08T01:37:28;3.25;;;2.17;;
28653;SDS011;24320;56.980;24.336;2023-09-08T01:39:55;4.10;;;2.38;;
28653;SDS011;24320;56.980;24.336;2023-09-08T01:42:22;3.42;;;2.75;;
28653;SDS011;24320;56.980;24.336;2023-09-08T01:44:49;3.58;;;2.08;;
28653;SDS011;24320;56.980;24.336;2023-09-08T01:47:30;5.55;;;2.17;;
28653;SDS011;24320;56.980;24.336;2023-09-08T01:49:58;4.28;;;2.60;;
28653;SDS011;24320;56.980;24.336;2023-09-08T01:52:25;4.82;;;2.42;;
28653;SDS011;24320;56.980;24.336;2023-09-08T01:54:52;4.20;;;2.80;;
28653;SDS011;24320;56.980;24.336;2023-09-08T01:57:19;6.00;;;2.63;;
28653;SDS011;24320;56.980;24.336;2023-09-08T01:59:47;4.13;;;2.30;;
28653;SDS011;24320;56.980;24.336;2023-09-08T02:02:14;5.22;;;2.17;;
28653;SDS011;24320;56.980;24.336;2023-09-08T02:04:42;4.50;;;2.38;;
28653;SDS011;24320;56.980;24.336;2023-09-08T02:07:09;4.10;;;2.55;;
28653;SDS011;24320;56.980;24.336;2023-09-08T02:09:36;6.57;;;2.58;;
28653;SDS011;24320;56.980;24.336;2023-09-08T02:12:04;4.80;;;2.53;;
28653;SDS011;24320;56.980;24.336;2023-09-08T02:14:32;6.07;;;2.60;;
28653;SDS011;24320;56.980;24.336;2023-09-08T02:16:59;4.43;;;2.53;;
28653;SDS011;24320;56.980;24.336;2023-09-08T02:19:26;5.53;;;3.10;;
28653;SDS011;24320;56.980;24.336;2023-09-08T02:21:53;6.38;;;2.80;;
28653;SDS011;24320;56.980;24.336;2023-09-08T02:24:21;5.25;;;2.83;;
28653;SDS011;24320;56.980;24.336;2023-09-08T02:26:48;3.92;;;2.58;;
28653;SDS011;24320;56.980;24.336;2023-09-08T02:29:15;6.68;;;2.40;;
28653;SDS011;24320;56.980;24.336;2023-09-08T02:31:43;4.35;;;2.60;;
28653;SDS011;24320;56.980;24.336;2023-09-08T02:34:11;5.55;;;2.42;;
28653;SDS011;24320;56.980;24.336;2023-09-08T02:36:39;3.45;;;2.30;;
28653;SDS011;24320;56.980;24.336;2023-09-08T02:39:06;5.35;;;2.90;;
28653;SDS011;24320;56.980;24.336;2023-09-08T02:41:33;4.45;;;2.58;;
28653;SDS011;24320;56.980;24.336;2023-09-08T02:44:01;6.38;;;2.78;;
28653;SDS011;24320;56.980;24.336;2023-09-08T02:46:28;4.13;;;2.33;;
28653;SDS011;24320;56.980;24.336;2023-09-08T02:48:55;5.30;;;2.85;;
28653;SDS011;24320;56.980;24.336;2023-09-08T02:51:23;9.38;;;3.08;;
28653;SDS011;24320;56.980;24.336;2023-09-08T02:53:50;3.95;;;2.78;;
28653;SDS011;24320;56.980;24.336;2023-09-08T02:56:17;5.97;;;3.03;;
28653;SDS011;24320;56.980;24.336;2023-09-08T02:58:44;7.03;;;2.53;;
28653;SDS011;24320;56.980;24.336;2023-09-08T03:01:12;4.35;;;2.30;;
28653;SDS011;24320;56.980;24.336;2023-09-08T03:03:41;4.85;;;2.83;;
28653;SDS011;24320;56.980;24.336;2023-09-08T03:06:09;3.60;;;2.63;;
28653;SDS011;24320;56.980;24.336;2023-09-08T03:08:37;6.30;;;2.35;;
28653;SDS011;24320;56.980;24.336;2023-09-08T03:11:04;3.85;;;2.42;;
28653;SDS011;24320;56.980;24.336;2023-09-08T03:13:32;7.70;;;2.55;;
28653;SDS011;24320;56.980;24.336;2023-09-08T03:16:07;4.95;;;2.90;;
28653;SDS011;24320;56.980;24.336;2023-09-08T03:18:35;7.95;;;2.83;;
28653;SDS011;24320;56.980;24.336;2023-09-08T03:21:04;5.80;;;2.88;;
28653;SDS011;24320;56.980;24.336;2023-09-08T03:23:38;7.35;;;2.55;;
28653;SDS011;24320;56.980;24.336;2023-09-08T03:26:07;4.55;;;2.83;;
28653;SDS011;24320;56.980;24.336;2023-09-08T03:28:35;11.38;;;3.10;;
28653;SDS011;24320;56.980;24.336;2023-09-08T03:31:05;5.05;;;2.47;;
28653;SDS011;24320;56.980;24.336;2023-09-08T03:33:32;25.70;;;9.25;;
28653;SDS011;24320;56.980;24.336;2023-09-08T03:36:00;28.27;;;10.10;;
28653;SDS011;24320;56.980;24.336;2023-09-08T03:38:28;17.60;;;6.57;;
28653;SDS011;24320;56.980;24.336;2023-09-08T03:40:56;12.65;;;5.38;;
28653;SDS011;24320;56.980;24.336;2023-09-08T03:43:23;20.67;;;6.18;;
28653;SDS011;24320;56.980;24.336;2023-09-08T03:45:50;8.65;;;4.03;;
28653;SDS011;24320;56.980;24.336;2023-09-08T03:48:18;7.70;;;3.97;;
28653;SDS011;24320;56.980;24.336;2023-09-08T03:50:45;7.88;;;3.47;;
28653;SDS011;24320;56.980;24.336;2023-09-08T03:53:12;22.25;;;6.10;;
28653;SDS011;24320;56.980;24.336;2023-09-08T03:55:41;12.35;;;4.90;;
28653;SDS011;24320;56.980;24.336;2023-09-08T03:58:08;7.82;;;3.88;;
28653;SDS011;24320;56.980;24.336;2023-09-08T04:00:35;9.02;;;4.43;;
28653;SDS011;24320;56.980;24.336;2023-09-08T04:03:03;8.52;;;3.90;;
28653;SDS011;24320;56.980;24.336;2023-09-08T04:05:31;16.05;;;4.13;;
28653;SDS011;24320;56.980;24.336;2023-09-08T04:07:58;10.98;;;3.90;;
28653;SDS011;24320;56.980;24.336;2023-09-08T04:10:25;8.77;;;4.13;;
28653;SDS011;24320;56.980;24.336;2023-09-08T04:12:52;7.15;;;3.63;;
28653;SDS011;24320;56.980;24.336;2023-09-08T04:15:19;12.02;;;3.53;;
28653;SDS011;24320;56.980;24.336;2023-09-08T04:17:47;9.57;;;3.92;;
28653;SDS011;24320;56.980;24.336;2023-09-08T04:20:14;6.90;;;3.30;;
28653;SDS011;24320;56.980;24.336;2023-09-08T04:22:41;12.45;;;4.18;;
28653;SDS011;24320;56.980;24.336;2023-09-08T04:25:09;9.77;;;3.80;;
28653;SDS011;24320;56.980;24.336;2023-09-08T04:27:36;11.02;;;3.70;;
28653;SDS011;24320;56.980;24.336;2023-09-08T04:30:04;6.18;;;3.65;;
28653;SDS011;24320;56.980;24.336;2023-09-08T04:32:33;11.05;;;4.20;;
28653;SDS011;24320;56.980;24.336;2023-09-08T04:35:00;7.93;;;3.80;;
28653;SDS011;24320;56.980;24.336;2023-09-08T04:37:27;7.47;;;3.95;;
28653;SDS011;24320;56.980;24.336;2023-09-08T04:39:56;9.45;;;3.90;;
28653;SDS011;24320;56.980;24.336;2023-09-08T04:42:24;6.22;;;3.50;;
28653;SDS011;24320;56.980;24.336;2023-09-08T04:44:52;11.60;;;4.70;;
28653;SDS011;24320;56.980;24.336;2023-09-08T04:47:19;14.70;;;5.75;;
28653;SDS011;24320;56.980;24.336;2023-09-08T04:49:47;16.23;;;7.55;;
28653;SDS011;24320;56.980;24.336;2023-09-08T04:52:14;13.65;;;5.57;;
28653;SDS011;24320;56.980;24.336;2023-09-08T04:54:41;9.38;;;4.40;;
28653;SDS011;24320;56.980;24.336;2023-09-08T04:57:08;8.95;;;3.70;;
28653;SDS011;24320;56.980;24.336;2023-09-08T04:59:48;4.13;;;2.90;;
28653;SDS011;24320;56.980;24.336;2023-09-08T05:02:16;5.13;;;2.78;;
28653;SDS011;24320;56.980;24.336;2023-09-08T05:04:45;4.03;;;2.42;;
28653;SDS011;24320;56.980;24.336;2023-09-08T05:07:12;6.50;;;2.75;;
28653;SDS011;24320;56.980;24.336;2023-09-08T05:09:40;5.70;;;2.60;;
28653;SDS011;24320;56.980;24.336;2023-09-08T05:12:07;6.15;;;2.92;;
28653;SDS011;24320;56.980;24.336;2023-09-08T05:14:34;7.25;;;2.80;;
28653;SDS011;24320;56.980;24.336;2023-09-08T05:17:01;7.65;;;2.55;;
28653;SDS011;24320;56.980;24.336;2023-09-08T05:19:28;5.20;;;2.17;;
28653;SDS011;24320;56.980;24.336;2023-09-08T05:21:56;5.68;;;3.10;;
28653;SDS011;24320;56.980;24.336;2023-09-08T05:24:23;4.65;;;2.42;;
28653;SDS011;24320;56.980;24.336;2023-09-08T05:26:52;12.52;;;2.60;;
28653;SDS011;24320;56.980;24.336;2023-09-08T05:29:19;5.90;;;2.80;;
28653;SDS011;24320;56.980;24.336;2023-09-08T05:31:46;7.05;;;2.67;;
28653;SDS011;24320;56.980;24.336;2023-09-08T05:34:14;5.80;;;2.67;;
28653;SDS011;24320;56.980;24.336;2023-09-08T05:36:41;4.65;;;2.55;;
28653;SDS011;24320;56.980;24.336;2023-09-08T05:39:09;4.35;;;2.47;;
28653;SDS011;24320;56.980;24.336;2023-09-08T05:41:37;7.22;;;2.85;;
28653;SDS011;24320;56.980;24.336;2023-09-08T05:44:04;7.03;;;2.70;;
28653;SDS011;24320;56.980;24.336;2023-09-08T05:46:31;7.80;;;2.25;;
28653;SDS011;24320;56.980;24.336;2023-09-08T05:48:59;3.10;;;2.17;;
28653;SDS011;24320;56.980;24.336;2023-09-08T05:51:26;8.20;;;3.03;;
28653;SDS011;24320;56.980;24.336;2023-09-08T05:53:53;3.33;;;2.15;;
28653;SDS011;24320;56.980;24.336;2023-09-08T05:56:20;3.60;;;2.53;;
28653;SDS011;24320;56.980;24.336;2023-09-08T05:58:47;9.20;;;2.72;;
28653;SDS011;24320;56.980;24.336;2023-09-08T06:01:15;5.60;;;2.30;;
28653;SDS011;24320;56.980;24.336;2023-09-08T06:03:42;5.07;;;2.30;;
28653;SDS011;24320;56.980;24.336;2023-09-08T06:06:10;11.00;;;3.13;;
28653;SDS011;24320;56.980;24.336;2023-09-08T06:08:37;5.18;;;2.40;;
28653;SDS011;24320;56.980;24.336;2023-09-08T06:11:05;5.32;;;2.90;;
28653;SDS011;24320;56.980;24.336;2023-09-08T06:13:32;8.02;;;2.35;;
28653;SDS011;24320;56.980;24.336;2023-09-08T06:15:59;7.07;;;2.70;;
28653;SDS011;24320;56.980;24.336;2023-09-08T06:18:28;5.20;;;3.03;;
28653;SDS011;24320;56.980;24.336;2023-09-08T06:20:59;3.60;;;2.53;;
28653;SDS011;24320;56.980;24.336;2023-09-08T06:23:26;6.60;;;2.78;;
28653;SDS011;24320;56.980;24.336;2023-09-08T06:25:56;7.88;;;2.53;;
28653;SDS011;24320;56.980;24.336;2023-09-08T06:28:27;6.38;;;2.65;;
28653;SDS011;24320;56.980;24.336;2023-09-08T06:30:54;6.00;;;2.67;;
28653;SDS011;24320;56.980;24.336;2023-09-08T06:33:22;9.57;;;2.30;;
28653;SDS011;24320;56.980;24.336;2023-09-08T06:35:50;8.93;;;2.75;;
28653;SDS011;24320;56.980;24.336;2023-09-08T06:38:17;7.95;;;2.90;;
28653;SDS011;24320;56.980;24.336;2023-09-08T06:40:44;6.97;;;2.55;;
28653;SDS011;24320;56.980;24.336;2023-09-08T06:43:11;6.82;;;2.65;;
28653;SDS011;24320;56.980;24.336;2023-09-08T06:45:38;8.07;;;2.30;;
28653;SDS011;24320;56.980;24.336;2023-09-08T06:48:06;7.85;;;2.25;;
28653;SDS011;24320;56.980;24.336;2023-09-08T06:50:33;4.00;;;2.60;;
28653;SDS011;24320;56.980;24.336;2023-09-08T06:53:01;6.95;;;2.47;;
28653;SDS011;24320;56.980;24.336;2023-09-08T06:55:28;3.78;;;2.10;;
28653;SDS011;24320;56.980;24.336;2023-09-08T06:57:56;6.22;;;2.30;;
28653;SDS011;24320;56.980;24.336;2023-09-08T07:00:23;5.05;;;2.13;;
28653;SDS011;24320;56.980;24.336;2023-09-08T07:02:50;6.63;;;2.45;;
28653;SDS011;24320;56.980;24.336;2023-09-08T07:05:18;15.55;;;2.58;;
28653;SDS011;24320;56.980;24.336;2023-09-08T07:07:45;4.88;;;2.08;;
28653;SDS011;24320;56.980;24.336;2023-09-08T07:10:14;6.47;;;2.28;;
28653;SDS011;24320;56.980;24.336;2023-09-08T07:12:42;5.00;;;2.05;;
28653;SDS011;24320;56.980;24.336;2023-09-08T07:15:09;5.95;;;1.90;;
28653;SDS011;24320;56.980;24.336;2023-09-08T07:17:36;6.85;;;2.38;;
28653;SDS011;24320;56.980;24.336;2023-09-08T07:20:03;9.05;;;2.20;;
28653;SDS011;24320;56.980;24.336;2023-09-08T07:22:32;5.60;;;1.98;;
28653;SDS011;24320;56.980;24.336;2023-09-08T07:24:59;6.93;;;2.38;;
28653;SDS011;24320;56.980;24.336;2023-09-08T07:27:26;9.65;;;2.72;;
28653;SDS011;24320;56.980;24.336;2023-09-08T07:29:53;4.93;;;2.22;;
28653;SDS011;24320;56.980;24.336;2023-09-08T07:32:20;4.68;;;2.10;;
28653;SDS011;24320;56.980;24.336;2023-09-08T07:34:48;8.10;;;2.22;;
28653;SDS011;24320;56.980;24.336;2023-09-08T07:37:22;10.63;;;2.53;;
28653;SDS011;24320;56.980;24.336;2023-09-08T07:39:50;2.92;;;1.80;;
28653;SDS011;24320;56.980;24.336;2023-09-08T07:42:17;8.38;;;1.70;;
28653;SDS011;24320;56.980;24.336;2023-09-08T07:44:45;4.97;;;2.40;;
28653;SDS011;24320;56.980;24.336;2023-09-08T07:47:12;5.72;;;2.00;;
28653;SDS011;24320;56.980;24.336;2023-09-08T07:49:39;25.95;;;2.95;;
28653;SDS011;24320;56.980;24.336;2023-09-08T07:52:11;7.00;;;1.85;;
28653;SDS011;24320;56.980;24.336;2023-09-08T07:54:38;4.65;;;2.00;;
28653;SDS011;24320;56.980;24.336;2023-09-08T07:57:05;4.53;;;1.60;;
28653;SDS011;24320;56.980;24.336;2023-09-08T07:59:33;3.90;;;1.70;;
28653;SDS011;24320;56.980;24.336;2023-09-08T08:02:03;6.78;;;1.75;;
28653;SDS011;24320;56.980;24.336;2023-09-08T08:04:30;6.65;;;1.88;;
28653;SDS011;24320;56.980;24.336;2023-09-08T08:06:57;10.32;;;2.13;;
28653;SDS011;24320;56.980;24.336;2023-09-08T08:09:24;5.03;;;1.83;;
28653;SDS011;24320;56.980;24.336;2023-09-08T08:11:51;3.78;;;1.48;;
28653;SDS011;24320;56.980;24.336;2023-09-08T08:14:18;9.27;;;1.75;;
28653;SDS011;24320;56.980;24.336;2023-09-08T08:16:45;4.25;;;1.25;;
28653;SDS011;24320;56.980;24.336;2023-09-08T08:19:12;4.97;;;1.30;;
28653;SDS011;24320;56.980;24.336;2023-09-08T08:21:39;3.45;;;1.50;;
28653;SDS011;24320;56.980;24.336;2023-09-08T08:24:08;2.65;;;1.88;;
28653;SDS011;24320;56.980;24.336;2023-09-08T08:26:36;5.55;;;2.05;;
28653;SDS011;24320;56.980;24.336;2023-09-08T08:29:03;4.80;;;2.10;;
28653;SDS011;24320;56.980;24.336;2023-09-08T08:31:30;5.65;;;2.20;;
28653;SDS011;24320;56.980;24.336;2023-09-08T08:33:59;3.95;;;2.50;;
28653;SDS011;24320;56.980;24.336;2023-09-08T08:36:26;4.97;;;2.78;;
28653;SDS011;24320;56.980;24.336;2023-09-08T08:38:53;3.90;;;2.53;;
28653;SDS011;24320;56.980;24.336;2023-09-08T08:41:20;4.38;;;2.55;;
28653;SDS011;24320;56.980;24.336;2023-09-08T08:43:47;5.50;;;2.50;;
28653;SDS011;24320;56.980;24.336;2023-09-08T08:46:16;7.50;;;3.10;;
28653;SDS011;24320;56.980;24.336;2023-09-08T08:48:44;4.93;;;3.00;;
28653;SDS011;24320;56.980;24.336;2023-09-08T08:51:13;2.88;;;2.42;;
28653;SDS011;24320;56.980;24.336;2023-09-08T08:53:41;2.60;;;2.33;;
28653;SDS011;24320;56.980;24.336;2023-09-08T08:56:09;10.13;;;3.35;;
28653;SDS011;24320;56.980;24.336;2023-09-08T08:58:37;7.75;;;3.15;;
28653;SDS011;24320;56.980;24.336;2023-09-08T09:01:06;8.77;;;2.97;;
28653;SDS011;24320;56.980;24.336;2023-09-08T09:03:34;12.48;;;3.10;;
28653;SDS011;24320;56.980;24.336;2023-09-08T09:06:11;5.82;;;2.85;;
28653;SDS011;24320;56.980;24.336;2023-09-08T09:08:39;3.47;;;2.30;;
28653;SDS011;24320;56.980;24.336;2023-09-08T09:11:10;6.70;;;2.58;;
28653;SDS011;24320;56.980;24.336;2023-09-08T09:13:38;4.80;;;2.70;;
28653;SDS011;24320;56.980;24.336;2023-09-08T09:16:05;3.10;;;2.60;;
28653;SDS011;24320;56.980;24.336;2023-09-08T09:18:56;5.95;;;2.53;;
28653;SDS011;24320;56.980;24.336;2023-09-08T09:21:25;4.07;;;2.28;;
28653;SDS011;24320;56.980;24.336;2023-09-08T09:24:14;4.28;;;3.28;;
28653;SDS011;24320;56.980;24.336;2023-09-08T09:26:55;6.55;;;3.40;;
28653;SDS011;24320;56.980;24.336;2023-09-08T09:29:22;7.57;;;5.40;;
28653;SDS011;24320;56.980;24.336;2023-09-08T09:31:50;6.00;;;3.42;;
28653;SDS011;24320;56.980;24.336;2023-09-08T09:34:22;12.25;;;3.92;;
28653;SDS011;24320;56.980;24.336;2023-09-08T09:36:50;5.07;;;2.90;;
28653;SDS011;24320;56.980;24.336;2023-09-08T09:39:17;11.73;;;4.50;;
28653;SDS011;24320;56.980;24.336;2023-09-08T09:41:48;8.93;;;3.70;;
28653;SDS011;24320;56.980;24.336;2023-09-08T09:46:47;5.57;;;3.17;;
28653;SDS011;24320;56.980;24.336;2023-09-08T16:17:09;5.93;;;3.50;;
28653;SDS011;24320;56.980;24.336;2023-09-08T16:19:36;5.97;;;3.90;;
28653;SDS011;24320;56.980;24.336;2023-09-08T16:22:03;5.10;;;3.63;;
28653;SDS011;24320;56.980;24.336;2023-09-08T16:24:30;7.57;;;3.90;;
28653;SDS011;24320;56.980;24.336;2023-09-08T16:26:57;5.22;;;3.85;;
28653;SDS011;24320;56.980;24.336;2023-09-08T16:29:27;6.55;;;4.22;;
28653;SDS011;24320;56.980;24.336;2023-09-08T16:31:54;6.95;;;4.28;;
28653;SDS011;24320;56.980;24.336;2023-09-08T16:34:21;8.75;;;3.67;;
28653;SDS011;24320;56.980;24.336;2023-09-08T16:36:48;4.68;;;3.80;;
28653;SDS011;24320;56.980;24.336;2023-09-08T16:39:15;7.03;;;4.15;;
28653;SDS011;24320;56.980;24.336;2023-09-08T16:41:43;5.00;;;3.80;;
28653;SDS011;24320;56.980;24.336;2023-09-08T16:44:10;6.45;;;4.00;;
28653;SDS011;24320;56.980;24.336;2023-09-08T16:46:37;7.53;;;4.30;;
28653;SDS011;24320;56.980;24.336;2023-09-08T16:49:04;7.55;;;5.03;;
28653;SDS011;24320;56.980;24.336;2023-09-08T16:51:31;6.85;;;4.40;;
28653;SDS011;24320;56.980;24.336;2023-09-08T16:53:58;6.15;;;4.55;;
28653;SDS011;24320;56.980;24.336;2023-09-08T16:56:26;10.15;;;6.35;;
28653;SDS011;24320;56.980;24.336;2023-09-08T16:58:53;8.60;;;4.75;;
28653;SDS011;24320;56.980;24.336;2023-09-08T17:01:20;12.77;;;7.53;;
28653;SDS011;24320;56.980;24.336;2023-09-08T17:03:47;18.02;;;9.40;;
28653;SDS011;24320;56.980;24.336;2023-09-08T17:06:15;15.15;;;7.97;;
28653;SDS011;24320;56.980;24.336;2023-09-08T17:08:41;10.60;;;7.25;;
28653;SDS011;24320;56.980;24.336;2023-09-08T17:11:08;8.77;;;6.32;;
28653;SDS011;24320;56.980;24.336;2023-09-08T17:13:36;8.27;;;4.55;;
28653;SDS011;24320;56.980;24.336;2023-09-08T17:16:04;9.00;;;4.75;;
28653;SDS011;24320;56.980;24.336;2023-09-08T17:18:31;10.13;;;4.90;;
28653;SDS011;24320;56.980;24.336;2023-09-08T17:20:58;8.35;;;4.63;;
28653;SDS011;24320;56.980;24.336;2023-09-08T17:23:26;7.05;;;4.82;;
28653;SDS011;24320;56.980;24.336;2023-09-08T17:25:53;6.90;;;4.53;;
28653;SDS011;24320;56.980;24.336;2023-09-08T17:28:20;8.60;;;4.90;;
28653;SDS011;24320;56.980;24.336;2023-09-08T17:30:47;12.63;;;9.23;;
28653;SDS011;24320;56.980;24.336;2023-09-08T17:33:14;10.95;;;6.93;;
28653;SDS011;24320;56.980;24.336;2023-09-08T17:35:48;9.05;;;5.90;;
28653;SDS011;24320;56.980;24.336;2023-09-08T17:38:15;11.25;;;6.68;;
28653;SDS011;24320;56.980;24.336;2023-09-08T17:40:43;10.48;;;6.97;;
28653;SDS011;24320;56.980;24.336;2023-09-08T17:43:10;9.15;;;6.72;;
28653;SDS011;24320;56.980;24.336;2023-09-08T17:45:37;20.88;;;14.05;;
28653;SDS011;24320;56.980;24.336;2023-09-08T17:48:06;9.15;;;5.28;;
28653;SDS011;24320;56.980;24.336;2023-09-08T17:50:33;6.45;;;4.43;;
28653;SDS011;24320;56.980;24.336;2023-09-08T17:53:00;7.72;;;4.47;;
28653;SDS011;24320;56.980;24.336;2023-09-08T17:55:27;10.52;;;5.28;;
28653;SDS011;24320;56.980;24.336;2023-09-08T17:57:54;7.20;;;5.68;;
28653;SDS011;24320;56.980;24.336;2023-09-08T18:00:21;10.65;;;6.28;;
28653;SDS011;24320;56.980;24.336;2023-09-08T18:02:48;10.35;;;6.85;;
28653;SDS011;24320;56.980;24.336;2023-09-08T18:05:16;15.07;;;6.80;;
28653;SDS011;24320;56.980;24.336;2023-09-08T18:07:43;9.05;;;5.47;;
28653;SDS011;24320;56.980;24.336;2023-09-08T18:10:11;10.68;;;5.63;;
28653;SDS011;24320;56.980;24.336;2023-09-08T18:12:39;9.18;;;6.00;;
28653;SDS011;24320;56.980;24.336;2023-09-08T18:15:07;8.20;;;5.93;;
28653;SDS011;24320;56.980;24.336;2023-09-08T18:17:34;8.23;;;5.22;;
28653;SDS011;24320;56.980;24.336;2023-09-08T18:20:01;9.10;;;5.95;;
28653;SDS011;24320;56.980;24.336;2023-09-08T18:22:29;13.82;;;6.25;;
28653;SDS011;24320;56.980;24.336;2023-09-08T18:24:57;14.48;;;9.63;;
28653;SDS011;24320;56.980;24.336;2023-09-08T18:27:25;12.23;;;7.25;;
28653;SDS011;24320;56.980;24.336;2023-09-08T18:29:52;10.10;;;6.40;;
28653;SDS011;24320;56.980;24.336;2023-09-08T18:32:19;10.25;;;6.05;;
28653;SDS011;24320;56.980;24.336;2023-09-08T18:34:46;12.43;;;7.30;;
28653;SDS011;24320;56.980;24.336;2023-09-08T18:37:13;15.45;;;6.95;;
28653;SDS011;24320;56.980;24.336;2023-09-08T18:39:40;13.00;;;7.90;;
28653;SDS011;24320;56.980;24.336;2023-09-08T18:42:07;9.40;;;5.53;;
28653;SDS011;24320;56.980;24.336;2023-09-08T18:44:35;9.25;;;6.50;;
28653;SDS011;24320;56.980;24.336;2023-09-08T18:47:09;9.25;;;6.20;;
28653;SDS011;24320;56.980;24.336;2023-09-08T18:49:36;14.07;;;8.55;;
28653;SDS011;24320;56.980;24.336;2023-09-08T18:52:03;13.05;;;7.55;;
28653;SDS011;24320;56.980;24.336;2023-09-08T18:54:31;14.82;;;9.93;;
28653;SDS011;24320;56.980;24.336;2023-09-08T18:56:58;17.23;;;10.18;;
28653;SDS011;24320;56.980;24.336;2023-09-08T18:59:25;13.80;;;8.55;;
28653;SDS011;24320;56.980;24.336;2023-09-08T19:01:52;11.13;;;7.35;;
28653;SDS011;24320;56.980;24.336;2023-09-08T19:04:20;12.05;;;7.40;;
28653;SDS011;24320;56.980;24.336;2023-09-08T19:06:47;11.75;;;8.52;;
28653;SDS011;24320;56.980;24.336;2023-09-08T19:09:14;12.90;;;8.25;;
28653;SDS011;24320;56.980;24.336;2023-09-08T19:11:41;11.63;;;7.30;;
28653;SDS011;24320;56.980;24.336;2023-09-08T19:14:08;11.68;;;6.85;;
28653;SDS011;24320;56.980;24.336;2023-09-08T19:16:35;8.98;;;6.60;;
28653;SDS011;24320;56.980;24.336;2023-09-08T19:19:02;11.75;;;6.50;;
28653;SDS011;24320;56.980;24.336;2023-09-08T19:21:29;17.45;;;7.53;;
28653;SDS011;24320;56.980;24.336;2023-09-08T19:23:57;11.43;;;7.50;;
28653;SDS011;24320;56.980;24.336;2023-09-08T19:26:23;13.60;;;7.82;;
28653;SDS011;24320;56.980;24.336;2023-09-08T19:28:50;10.82;;;7.80;;
28653;SDS011;24320;56.980;24.336;2023-09-08T19:31:17;11.18;;;7.28;;
28653;SDS011;24320;56.980;24.336;2023-09-08T19:33:45;12.68;;;8.23;;
28653;SDS011;24320;56.980;24.336;2023-09-08T19:36:12;14.35;;;7.70;;
28653;SDS011;24320;56.980;24.336;2023-09-08T19:38:39;12.73;;;8.43;;
28653;SDS011;24320;56.980;24.336;2023-09-08T19:41:06;13.68;;;7.50;;
28653;SDS011;24320;56.980;24.336;2023-09-08T19:43:33;10.52;;;7.05;;
28653;SDS011;24320;56.980;24.336;2023-09-08T19:46:01;13.55;;;7.65;;
28653;SDS011;24320;56.980;24.336;2023-09-08T19:48:33;11.75;;;7.43;;
28653;SDS011;24320;56.980;24.336;2023-09-08T19:51:00;10.07;;;6.65;;
28653;SDS011;24320;56.980;24.336;2023-09-08T19:53:28;10.75;;;6.82;;
28653;SDS011;24320;56.980;24.336;2023-09-08T19:55:55;12.27;;;7.07;;
28653;SDS011;24320;56.980;24.336;2023-09-08T19:58:22;10.93;;;6.97;;
28653;SDS011;24320;56.980;24.336;2023-09-08T20:00:51;13.30;;;7.18;;
28653;SDS011;24320;56.980;24.336;2023-09-08T20:03:18;12.40;;;7.20;;
28653;SDS011;24320;56.980;24.336;2023-09-08T20:05:45;10.02;;;6.00;;
28653;SDS011;24320;56.980;24.336;2023-09-08T20:08:12;9.73;;;6.55;;
28653;SDS011;24320;56.980;24.336;2023-09-08T20:10:39;9.40;;;6.20;;
28653;SDS011;24320;56.980;24.336;2023-09-08T20:13:06;10.07;;;5.97;;
28653;SDS011;24320;56.980;24.336;2023-09-08T20:15:34;11.25;;;6.28;;
28653;SDS011;24320;56.980;24.336;2023-09-08T20:18:01;9.30;;;6.00;;
28653;SDS011;24320;56.980;24.336;2023-09-08T20:20:29;10.13;;;6.68;;
28653;SDS011;24320;56.980;24.336;2023-09-08T20:22:56;9.80;;;6.45;;
28653;SDS011;24320;56.980;24.336;2023-09-08T20:25:23;9.73;;;7.25;;
28653;SDS011;24320;56.980;24.336;2023-09-08T20:27:50;9.85;;;7.32;;
28653;SDS011;24320;56.980;24.336;2023-09-08T20:30:17;10.23;;;6.72;;
28653;SDS011;24320;56.980;24.336;2023-09-08T20:32:44;11.98;;;7.43;;
28653;SDS011;24320;56.980;24.336;2023-09-08T20:35:11;10.50;;;7.18;;
28653;SDS011;24320;56.980;24.336;2023-09-08T20:37:39;12.13;;;7.47;;
28653;SDS011;24320;56.980;24.336;2023-09-08T20:40:06;12.52;;;7.60;;
28653;SDS011;24320;56.980;24.336;2023-09-08T20:42:33;11.95;;;6.78;;
28653;SDS011;24320;56.980;24.336;2023-09-08T20:45:00;14.23;;;7.53;;
28653;SDS011;24320;56.980;24.336;2023-09-08T20:47:27;9.80;;;6.97;;
28653;SDS011;24320;56.980;24.336;2023-09-08T20:49:55;14.65;;;6.55;;
28653;SDS011;24320;56.980;24.336;2023-09-08T20:52:22;9.85;;;6.65;;
28653;SDS011;24320;56.980;24.336;2023-09-08T20:54:49;10.02;;;6.57;;
28653;SDS011;24320;56.980;24.336;2023-09-08T20:57:17;12.15;;;7.50;;
28653;SDS011;24320;56.980;24.336;2023-09-08T20:59:45;10.05;;;6.55;;
28653;SDS011;24320;56.980;24.336;2023-09-08T21:02:12;13.48;;;6.93;;
28653;SDS011;24320;56.980;24.336;2023-09-08T21:04:39;12.05;;;7.38;;
28653;SDS011;24320;56.980;24.336;2023-09-08T21:07:06;11.85;;;8.30;;